createdAt,value
2022-12-18T00:04:39.818Z,99695.13
2022-12-18T00:09:41.625Z,99694.34
2022-12-18T00:14:43.524Z,99705.34
2022-12-18T00:19:45.391Z,99707.91
2022-12-18T00:24:47.217Z,99712.91
2022-12-18T00:29:50.174Z,99703.53
2022-12-18T00:34:52.037Z,99714.44
2022-12-18T00:39:53.847Z,99719.50
2022-12-18T00:44:55.902Z,99728.81
2022-12-18T00:49:57.708Z,99722.91
2022-12-18T00:55:04.482Z,99720.47
2022-12-18T01:00:11.112Z,99727.28
2022-12-18T01:05:14.481Z,99745.09
2022-12-18T01:10:16.337Z,99744.34
2022-12-18T01:15:19.238Z,99748.66
2022-12-18T01:20:21.165Z,99750.44
2022-12-18T01:25:22.994Z,99749.69
2022-12-18T01:30:26.296Z,99750.66
2022-12-18T01:35:28.653Z,99749.84
2022-12-18T01:40:30.454Z,99751.56
2022-12-18T01:45:33.167Z,99733.13
2022-12-18T01:50:39.697Z,99743.28
2022-12-18T01:55:50.164Z,99746.72
2022-12-18T02:00:52.056Z,99745.09
2022-12-18T02:06:18.424Z,99763.69
2022-12-18T02:11:24.496Z,99763.78
2022-12-18T02:16:52.730Z,99740.22
2022-12-18T02:22:35.541Z,99752.94
2022-12-18T02:27:40.898Z,99756.38
2022-12-18T02:32:49.781Z,99768.22
2022-12-18T02:37:56.664Z,99771.66
2022-12-18T02:43:25.098Z,99764.09
2022-12-18T02:48:32.112Z,99761.59
2022-12-18T02:53:54.479Z,99765.00
2022-12-18T02:59:07.520Z,99765.00
2022-12-18T03:04:48.704Z,99752.38
2022-12-18T03:09:55.184Z,99769.28
2022-12-18T03:15:17.470Z,99765.97
2022-12-18T03:20:25.198Z,99769.41
2022-12-18T03:25:29.258Z,99767.78
2022-12-18T03:30:33.793Z,99775.38
2022-12-18T03:35:41.279Z,99780.47
2022-12-18T03:41:07.654Z,99774.59
2022-12-18T03:46:42.394Z,99775.50
2022-12-18T03:52:03.152Z,99784.81
2022-12-18T03:57:15.032Z,99785.69
2022-12-18T04:02:19.223Z,99789.94
2022-12-18T04:07:22.937Z,99797.59
2022-12-18T04:12:27.322Z,99794.28
2022-12-18T04:17:29.309Z,99797.69
2022-12-18T04:22:32.857Z,99798.56
2022-12-18T04:27:35.542Z,99797.75
2022-12-18T04:32:39.782Z,99801.97
2022-12-18T04:37:42.429Z,99796.09
2022-12-18T04:42:44.419Z,99805.34
2022-12-18T04:47:46.277Z,99805.34
2022-12-18T04:52:48.126Z,99827.25
2022-12-18T04:57:49.996Z,99810.41
2022-12-18T05:02:51.947Z,99806.22
2022-12-18T05:07:53.852Z,99814.66
2022-12-18T05:12:59.109Z,99818.06
2022-12-18T05:18:03.709Z,99813.03
2022-12-18T05:23:05.484Z,99816.47
2022-12-18T05:28:07.266Z,99811.50
2022-12-18T05:33:09.216Z,99821.69
2022-12-18T05:38:11.244Z,99808.22
2022-12-18T05:43:17.913Z,99806.59
2022-12-18T05:48:23.350Z,99808.31
2022-12-18T05:53:25.202Z,99813.41
2022-12-18T05:58:26.995Z,99823.50
2022-12-18T06:03:33.691Z,99831.94
2022-12-18T06:08:35.956Z,99829.47
2022-12-18T06:13:39.868Z,99843.78
2022-12-18T06:18:41.804Z,99841.31
2022-12-18T06:23:43.828Z,99843.81
2022-12-18T06:28:45.635Z,99858.13
2022-12-18T06:33:47.670Z,99848.00
2022-12-18T06:38:50.008Z,99852.22
2022-12-18T06:43:55.583Z,99844.66
2022-12-18T06:49:00.304Z,99856.47
2022-12-18T06:54:02.484Z,99859.00
2022-12-18T06:59:04.414Z,99856.50
2022-12-18T07:04:06.184Z,99872.47
2022-12-18T07:09:07.945Z,99877.50
2022-12-18T07:14:09.993Z,99870.81
2022-12-18T07:19:11.774Z,99883.41
2022-12-18T07:24:14.024Z,99877.50
2022-12-18T07:29:15.837Z,99882.53
2022-12-18T07:34:17.925Z,99896.84
2022-12-18T07:39:19.861Z,99904.41
2022-12-18T07:44:21.629Z,99917.78
2022-12-18T07:49:23.338Z,99898.38
2022-12-18T07:54:25.926Z,99916.81
2022-12-18T07:59:28.798Z,99913.28
2022-12-18T08:04:30.597Z,99908.13
2022-12-18T08:09:32.435Z,99907.16
2022-12-18T08:14:34.204Z,99902.75
2022-12-18T08:19:36.150Z,99890.00
2022-12-18T08:24:37.984Z,99895.75
2022-12-18T08:29:39.788Z,99894.88
2022-12-18T08:34:41.548Z,99895.59
2022-12-18T08:39:43.254Z,99902.19
2022-12-18T08:44:45.032Z,99893.53
2022-12-18T08:49:46.839Z,99893.25
2022-12-18T08:54:48.638Z,99902.28
2022-12-18T08:59:50.645Z,99909.59
2022-12-18T09:04:57.097Z,99913.56
2022-12-18T09:09:59.454Z,99900.63
2022-12-18T09:15:01.181Z,99908.94
2022-12-18T09:20:03.135Z,99922.75
2022-12-18T09:25:08.934Z,99938.50
2022-12-18T09:30:11.388Z,99940.94
2022-12-18T09:35:13.224Z,99940.53
2022-12-18T09:40:21.997Z,99941.31
2022-12-18T09:45:24.666Z,99935.34
2022-12-18T09:50:40.412Z,99936.09
2022-12-18T09:55:45.934Z,99926.59
2022-12-18T10:00:48.406Z,99919.78
2022-12-18T10:05:56.165Z,99919.91
2022-12-18T10:11:11.609Z,99911.50
2022-12-18T10:16:25.451Z,99897.94
2022-12-18T10:21:54.857Z,99881.84
2022-12-18T10:27:13.994Z,99880.09
2022-12-18T10:32:22.107Z,99865.66
2022-12-18T10:37:26.877Z,99857.81
2022-12-18T10:42:28.607Z,99846.59
2022-12-18T10:47:30.610Z,99837.34
2022-12-18T10:52:32.434Z,99839.13
2022-12-18T10:57:39.707Z,99846.56
2022-12-18T11:02:41.740Z,99843.03
2022-12-18T11:07:51.759Z,99841.16
2022-12-18T11:12:53.658Z,99842.75
2022-12-18T11:17:55.937Z,99829.97
2022-12-18T11:23:01.154Z,99812.94
2022-12-18T11:28:07.423Z,99811.13
2022-12-18T11:33:27.253Z,99812.00
2022-12-18T11:38:35.791Z,99811.13
2022-12-18T11:43:51.656Z,99806.94
2022-12-18T11:48:55.430Z,99807.00
2022-12-18T11:53:57.195Z,99816.34
2022-12-18T11:59:29.489Z,99814.63
2022-12-18T12:04:44.793Z,99823.91
2022-12-18T12:09:55.326Z,99823.97
2022-12-18T12:15:11.593Z,99841.69
2022-12-18T12:20:46.054Z,99837.47
2022-12-18T12:25:53.839Z,99841.69
2022-12-18T12:31:26.275Z,99837.41
2022-12-18T12:36:41.963Z,99852.63
2022-12-18T12:42:05.095Z,99856.94
2022-12-18T12:47:33.536Z,99869.72
2022-12-18T12:52:43.756Z,99843.63
2022-12-18T12:58:09.245Z,99842.88
2022-12-18T13:03:28.918Z,99843.03
2022-12-18T13:08:33.977Z,99831.28
2022-12-18T13:13:50.902Z,99845.72
2022-12-18T13:19:00.896Z,99828.84
2022-12-18T13:24:24.337Z,99834.00
2022-12-18T13:29:46.283Z,99840.03
2022-12-18T13:34:48.627Z,99840.16
2022-12-18T13:39:50.522Z,99837.72
2022-12-18T13:44:52.757Z,99842.03
2022-12-18T13:49:55.978Z,99833.56
2022-12-18T13:55:00.604Z,99829.31
2022-12-18T14:00:29.203Z,99830.16
2022-12-18T14:05:33.352Z,99831.94
2022-12-18T14:10:47.886Z,99830.41
2022-12-18T14:15:51.954Z,99829.78
2022-12-18T14:20:57.968Z,99837.53
2022-12-18T14:26:05.784Z,99841.94
2022-12-18T14:31:20.562Z,99823.50
2022-12-18T14:36:29.595Z,99805.06
2022-12-18T14:41:32.358Z,99806.91
2022-12-18T14:46:37.786Z,99802.78
2022-12-18T14:51:39.716Z,99805.38
2022-12-18T14:56:48.554Z,99807.91
2022-12-18T15:02:18.340Z,99808.81
2022-12-18T15:07:22.815Z,99797.06
2022-12-18T15:12:40.904Z,99800.53
2022-12-18T15:17:42.548Z,99799.78
2022-12-18T15:22:44.298Z,99800.75
2022-12-18T15:27:48.468Z,99800.00
2022-12-18T15:32:51.348Z,99792.47
2022-12-18T15:37:53.546Z,99786.63
2022-12-18T15:43:15.386Z,99779.06
2022-12-18T15:48:25.933Z,99779.16
2022-12-18T15:53:33.495Z,99795.31
2022-12-18T15:58:35.441Z,99794.50
2022-12-18T16:03:38.029Z,99790.34
2022-12-18T16:08:40.316Z,99778.53
2022-12-18T16:13:43.755Z,99776.06
2022-12-18T16:18:45.724Z,99774.41
2022-12-18T16:23:47.765Z,99771.81
2022-12-18T16:28:49.524Z,99777.75
2022-12-18T16:34:13.805Z,99763.31
2022-12-18T16:39:15.740Z,99761.53
2022-12-18T16:44:17.800Z,99758.97
2022-12-18T16:49:20.234Z,99758.88
2022-12-18T16:54:22.214Z,99766.34
2022-12-18T16:59:24.015Z,99758.63
2022-12-18T17:04:25.795Z,99757.72
2022-12-18T17:09:27.728Z,99753.53
2022-12-18T17:14:29.933Z,99743.38
2022-12-18T17:19:31.750Z,99743.34
2022-12-18T17:24:35.359Z,99730.66
2022-12-18T17:29:41.161Z,99731.47
2022-12-18T17:34:47.960Z,99728.84
2022-12-18T17:39:49.749Z,99722.09
2022-12-18T17:44:51.573Z,99728.81
2022-12-18T17:49:53.652Z,99718.59
2022-12-18T17:54:57.582Z,99711.78
2022-12-18T17:59:59.339Z,99704.19
2022-12-18T18:05:01.145Z,99717.66
2022-12-18T18:10:03.087Z,99708.31
2022-12-18T18:15:05.223Z,99705.78
2022-12-18T18:20:07.949Z,99698.06
2022-12-18T18:25:10.519Z,99699.72
2022-12-18T18:30:13.328Z,99692.13
2022-12-18T18:35:44.731Z,99686.97
2022-12-18T18:40:37.216Z,99686.13
2022-12-18T18:45:39.053Z,99675.09
2022-12-18T18:50:44.077Z,99671.66
2022-12-18T18:55:51.696Z,99686.88
2022-12-18T19:01:16.668Z,99662.41
2022-12-18T19:06:24.053Z,99661.56
2022-12-18T19:11:45.543Z,99644.69
2022-12-18T19:16:47.424Z,99636.25
2022-12-18T19:21:50.134Z,99624.41
2022-12-18T19:26:52.302Z,99626.88
2022-12-18T19:31:57.307Z,99609.09
2022-12-18T19:37:00.062Z,99605.59
2022-12-18T19:42:02.261Z,99587.72
2022-12-18T19:47:04.064Z,99574.97
2022-12-18T19:52:05.847Z,99575.66
2022-12-18T19:57:11.503Z,99583.03
2022-12-18T20:02:14.019Z,99571.00
2022-12-18T20:07:16.106Z,99576.78
2022-12-18T20:12:18.074Z,99561.28
2022-12-18T20:17:20.107Z,99560.28
2022-12-18T20:22:22.756Z,99573.69
2022-12-18T20:27:25.055Z,99570.25
2022-12-18T20:32:26.963Z,99579.53
2022-12-18T20:37:31.402Z,99567.56
2022-12-18T20:42:33.504Z,99559.78
2022-12-18T20:47:35.218Z,99546.00
2022-12-18T20:52:36.944Z,99535.75
2022-12-18T20:57:39.199Z,99545.81
2022-12-18T21:02:41.118Z,99537.31
2022-12-18T21:07:43.295Z,99542.31
2022-12-18T21:13:00.180Z,99543.00
2022-12-18T21:18:05.350Z,99535.19
2022-12-18T21:23:16.023Z,99542.53
2022-12-18T21:28:18.816Z,99524.59
2022-12-18T21:33:20.815Z,99538.03
2022-12-18T21:38:22.651Z,99535.44
2022-12-18T21:43:43.047Z,99526.94
2022-12-18T21:48:44.814Z,99522.69
2022-12-18T21:53:47.627Z,99531.03
2022-12-18T21:58:56.684Z,99534.44
2022-12-18T22:03:59.248Z,99504.88
2022-12-18T22:09:01.148Z,99515.16
2022-12-18T22:14:02.938Z,99525.41
2022-12-18T22:19:04.734Z,99506.03
2022-12-18T22:24:10.783Z,99510.38
2022-12-18T22:29:37.846Z,99501.13
2022-12-18T22:34:39.723Z,99507.97
2022-12-18T22:39:41.535Z,99488.59
2022-12-18T22:44:43.753Z,99500.41
2022-12-18T22:49:45.676Z,99485.94
2022-12-18T22:54:47.515Z,99466.34
2022-12-18T22:59:50.380Z,99475.69
2022-12-18T23:04:52.439Z,99464.69
2022-12-18T23:10:00.798Z,99453.59
2022-12-18T23:15:04.908Z,99439.28
2022-12-18T23:20:07.224Z,99428.38
2022-12-18T23:25:09.555Z,99414.13
2022-12-18T23:30:11.944Z,99403.19
2022-12-18T23:35:15.548Z,99404.84
2022-12-18T23:40:18.224Z,99391.28
2022-12-18T23:45:20.331Z,99382.88
2022-12-18T23:50:29.116Z,99364.38
2022-12-18T23:55:32.099Z,99372.16
